Time;durP1;ratioP1;P1;durP2;ratioP2;P2;SDS_P1;SDS_P2;PMS_P1;PMS_P2;Temp;Humidity;BMP_temperature;BMP_pressure;BME280_temperature;BME280_humidity;BME280_pressure;Samples;Min_cycle;Max_cycle;Signal;HPM_P1;HPM_P2
2021/07/19 00:00:22;;;;;;;;;;;;;;;;;;;;;
2021/07/19 00:02:56;;;;;;;;;;;;;;;;;;;;;
2021/07/19 00:05:31;;;;;;;;;;;;;;;;;;;;;
2021/07/19 00:07:57;;;;;;;24.18;21.73;;;;;;;23.05;100.00;100119.48;1265901;107;21874;-88
2021/07/19 00:10:43;;;;;;;;;;;;;;;;;;;;;
2021/07/19 00:13:27;;;;;;;;;;;;;;;;;;;;;
2021/07/19 00:16:12;;;;;;;38.27;34.20;;;;;;;23.02;100.00;100124.39;1225107;115;21329;-87
2021/07/19 00:19:01;;;;;;;;;;;;;;;;;;;;;
2021/07/19 00:21:26;;;;;;;31.12;27.73;;;;;;;22.96;100.00;100114.09;1219823;114;21264;-87
2021/07/19 00:23:56;;;;;;;31.73;27.93;;;;;;;22.94;100.00;100124.93;1252881;113;21184;-87
2021/07/19 00:26:37;;;;;;;;;;;;;;;;;;;;;
2021/07/19 00:28:59;;;;;;;39.35;29.90;;;;;;;22.96;100.00;100126.84;1330373;104;21247;-87
2021/07/19 00:31:34;;;;;;;41.92;28.98;;;;;;;22.95;100.00;100120.42;1354828;102;21131;-87
2021/07/19 00:34:15;;;;;;;;;;;;;;;;;;;;;
2021/07/19 00:36:39;;;;;;;38.40;26.75;;;;;;;22.96;100.00;100127.37;1417091;96;21097;-87
2021/07/19 00:39:09;;;;;;;38.45;30.82;;;;;;;22.98;100.00;100123.47;1449878;96;21180;-87
2021/07/19 00:41:41;;;;;;;40.58;28.02;;;;;;;22.99;100.00;100126.44;1481962;91;21086;-87
2021/07/19 00:44:27;;;;;;;;;;;;;;;;;;;;;
2021/07/19 00:46:53;;;;;;;38.40;31.17;;;;;;;22.98;100.00;100120.02;1433354;98;21202;-88
2021/07/19 00:49:42;;;;;;;33.13;28.05;;;;;;;23.01;100.00;100123.56;1367140;103;21255;-91
2021/07/19 00:52:15;;;;;;;38.80;29.65;;;;;;;23.00;100.00;100122.77;1356227;101;21217;-90
2021/07/19 00:54:46;;;;;;;41.77;31.12;;;;;;;23.00;100.00;100120.59;1396757;101;21196;-87
2021/07/19 00:57:17;;;;;;;43.23;31.07;;;;;;;23.00;100.00;100124.09;1420705;99;21226;-87
2021/07/19 00:59:55;;;;;;;;;;;;;;;;;;;;;
2021/07/19 01:02:19;;;;;;;31.33;28.12;;;;;;;22.98;100.00;100117.36;1321778;104;21289;-87
2021/07/19 01:04:57;;;;;;;30.15;27.05;;;;;;;22.98;100.00;100121.34;1347794;104;21162;-87
2021/07/19 01:07:33;;;;;;;;;;;;;;;;;;;;;
2021/07/19 01:09:54;;;;;;;;;;;;;;;22.97;100.00;100123.17;1390460;101;21120;-87
2021/07/19 01:12:25;;;;;;;36.90;29.95;;;;;;;22.99;100.00;100125.63;1466330;92;20206;-88
2021/07/19 01:14:53;;;;;;;32.73;29.32;;;;;;;22.97;100.00;100125.82;1510282;92;22044;-86
2021/07/19 01:17:33;;;;;;;;;;;;;;;;;;;;;
2021/07/19 01:19:59;;;;;;;30.82;27.82;;;;;;;22.87;100.00;100128.13;1478380;95;21644;-87
2021/07/19 01:23:09;;;;;;;32.28;26.75;;;;;;;22.80;100.00;100128.13;1536291;92;21151;-88
2021/07/19 01:26:25;;;;;;;41.40;27.70;;;;;;;22.74;100.00;100128.97;1548140;92;21034;-88
2021/07/19 01:29:06;;;;;;;;;;;;;;;;;;;;;
2021/07/19 01:31:57;;;;;;;;;;;;;;;;;;;;;
2021/07/19 01:34:27;;;;;;;;;;;;;;;;;;;;;
2021/07/19 01:37:30;;;;;;;;;;;;;;;;;;;;;
2021/07/19 01:40:16;;;;;;;;;;;;;;;;;;;;;
2021/07/19 01:42:54;;;;;;;;;;;;;;;;;;;;;
2021/07/19 01:45:29;;;;;;;;;;;;;;;;;;;;;
2021/07/19 01:47:55;;;;;;;32.83;26.30;;;;;;;22.80;100.00;100137.41;1260398;110;21494;-88
2021/07/19 01:50:28;;;;;;;36.63;25.92;;;;;;;22.76;100.00;100140.16;1303834;105;21738;-88
2021/07/19 01:53:02;;;;;;;34.35;27.73;;;;;;;22.75;100.00;100143.03;1446538;98;21118;-87
2021/07/19 01:55:33;;;;;;;63.08;28.67;;;;;;;22.75;100.00;100146.52;1449565;95;21157;-87
2021/07/19 01:58:13;;;;;;;;;;;;;;;;;;;;;
2021/07/19 02:00:34;;;;;;;35.03;25.32;;;;;;;22.76;100.00;100147.33;1528610;92;21073;-87
2021/07/19 02:03:05;;;;;;;35.55;25.75;;;;;;;22.74;100.00;100153.34;1461581;96;21189;-87
2021/07/19 02:05:39;;;;;;;28.87;24.72;;;;;;;22.72;100.00;100148.75;1443510;98;21183;-87
2021/07/19 02:08:23;;;;;;;;;;;;;;;;;;;;;
2021/07/19 02:10:53;;;;;;;25.27;22.87;;;;;;;22.72;100.00;100148.75;1371906;100;21119;-87
2021/07/19 02:13:36;;;;;;;;;;;;;;;;;;;;;
2021/07/19 02:16:10;;;;;;;;;;;;;;;;;;;;;
2021/07/19 02:18:45;;;;;;;;;;;;;;;;;;;;;
2021/07/19 02:21:19;;;;;;;;;;;;;;;;;;;;;
2021/07/19 02:24:02;;;;;;;25.65;23.05;;;;;;;22.42;100.00;100159.80;1437336;97;21117;-87
2021/07/19 02:26:34;;;;;;;27.10;24.40;;;;;;;22.44;100.00;100161.75;1423789;97;21668;-87
2021/07/19 02:29:06;;;;;;;26.82;24.40;;;;;;;22.46;100.00;100166.34;1417319;98;21249;-87
2021/07/19 02:31:50;;;;;;;;;;;;;;;;;;;;;
2021/07/19 02:34:14;;;;;;;25.27;22.70;;;;;;;22.43;100.00;100162.77;1402782;100;21294;-88
2021/07/19 02:36:49;;;;;;;25.23;22.70;;;;;;;22.45;100.00;100160.73;1449121;96;21059;-88
2021/07/19 02:39:26;;;;;;;25.02;22.73;;;;;;;22.46;100.00;100161.05;1507245;92;21178;-86
2021/07/19 02:41:59;;;;;;;;;;;;;;;;;;;;;
2021/07/19 02:44:29;;;;;;;;;;;;;;;;;;;;;
2021/07/19 02:46:54;;;;;;;25.85;23.40;;;;;;;22.46;100.00;100167.67;1483530;90;21673;-87
2021/07/19 02:49:25;;;;;;;25.43;22.90;;;;;;;22.44;100.00;100171.03;1551945;90;21145;-87
2021/07/19 02:52:04;;;;;;;;;;;;;;;;;;;;;
2021/07/19 02:54:25;;;;;;;;;;;;;;;22.38;100.00;100172.14;1651958;83;21592;-87
2021/07/19 02:56:54;;;;;;;27.90;25.00;;;;;;;22.38;100.00;100166.00;1708328;82;20148;-86
2021/07/19 02:59:23;;;;;;;25.90;23.38;;;;;;;22.40;100.00;100161.84;1760433;80;21499;-87
2021/07/19 03:01:55;;;;;;;26.87;24.05;;;;;;;22.43;100.00;100164.92;1760670;80;21600;-86
2021/07/19 03:04:44;;;;;;;28.75;25.65;;;;;;;22.48;100.00;100171.75;1754443;80;21120;-87
2021/07/19 03:07:30;;;;;;;35.58;24.75;;;;;;;22.51;100.00;100168.67;1641467;82;21099;-88
2021/07/19 03:10:10;;;;;;;33.80;23.98;;;;;;;22.59;100.00;100170.31;1706816;81;21034;-89
2021/07/19 03:12:50;;;;;;;28.57;23.27;;;;;;;22.69;100.00;100172.53;1656833;81;21445;-89
2021/07/19 03:15:19;;;;;;;29.85;22.73;;;;;;;22.77;100.00;100170.19;1716692;80;21560;-90
2021/07/19 03:17:51;;;;;;;25.90;23.32;;;;;;;22.85;100.00;100171.30;1731403;80;21509;-89
2021/07/19 04:17:40;;;;;;;;;;;;;;;;;;;;;
2021/07/19 04:27:40;;;;;;;;;;;;;;;;;;;;;
2021/07/19 04:30:24;;;;;;;;;;;;;;;;;;;;;
2021/07/19 04:52:17;;;;;;;30.85;27.35;;;;;;;24.89;100.00;100175.55;1271249;110;21294;-86
2021/07/19 04:55:36;;;;;;;;;;;;;;;;;;;;;
2021/07/19 04:58:12;;;;;;;31.62;27.10;;;;;;;25.15;100.00;100170.97;1307335;108;21178;-89
2021/07/19 05:00:40;;;;;;;31.05;27.75;;;;;;;25.24;100.00;100172.27;1302164;106;21605;-86
2021/07/19 05:03:14;;;;;;;29.05;26.05;;;;;;;25.36;100.00;100173.66;1321020;106;21906;-90
2021/07/19 05:05:41;;;;;;;31.62;26.93;;;;;;;25.47;100.00;100174.81;1335107;102;21369;-89
2021/07/19 05:08:09;;;;;;;29.90;25.52;;;;;;;25.59;100.00;100176.19;1426439;98;21128;-90
2021/07/19 05:10:58;;;;;;;31.42;26.95;;;;;;;25.68;100.00;100173.48;1459192;95;21737;-88
2021/07/19 05:13:22;;;;;;;28.52;25.55;;;;;;;25.78;100.00;100180.95;1502175;92;21176;-85
2021/07/19 05:15:50;;;;;;;29.52;26.10;;;;;;;25.87;100.00;100178.77;1564757;85;21855;-90
2021/07/19 05:18:20;;;;;;;33.60;25.20;;;;;;;25.99;100.00;100179.63;1654398;85;21660;-88
2021/07/19 05:20:52;;;;;;;29.90;26.52;;;;;;;26.06;100.00;100183.00;1661663;83;21370;-84
2021/07/19 05:23:23;;;;;;;26.25;23.77;;;;;;;26.17;100.00;100179.26;1690847;81;21018;-88
2021/07/19 05:25:54;;;;;;;27.00;24.35;;;;;;;26.26;100.00;100186.72;1677573;83;21034;-89
2021/07/19 05:28:23;;;;;;;27.22;23.83;;;;;;;26.34;100.00;100182.88;1705520;82;21917;-92
2021/07/19 05:30:53;;;;;;;26.15;23.67;;;;;;;26.42;100.00;100180.41;1685511;82;21053;-88
2021/07/19 05:33:24;;;;;;;28.65;25.45;;;;;;;26.51;100.00;100176.86;1692940;81;21126;-88
2021/07/19 05:35:56;;;;;;;27.77;24.35;;;;;;;26.59;100.00;100183.19;1709704;82;21053;-84
2021/07/19 05:38:25;;;;;;;25.95;23.55;;;;;;;26.65;100.00;100176.91;1658239;85;21657;-89
2021/07/19 05:40:52;;;;;;;28.30;25.52;;;;;;;26.71;100.00;100181.34;1661179;84;21566;-90
2021/07/19 05:43:19;;;;;;;28.15;25.12;;;;;;;26.78;100.00;100181.23;1691590;83;21510;-92
2021/07/19 05:45:46;;;;;;;27.75;25.05;;;;;;;26.84;100.00;100179.48;1706395;81;21066;-91
2021/07/19 05:48:21;;;;;;;28.50;25.50;;;;;;;26.92;100.00;100179.92;1709974;83;21667;-88
2021/07/19 05:51:03;;;;;;;27.20;24.55;;;;;;;26.98;100.00;100178.18;1686879;83;21109;-90
2021/07/19 05:53:50;;;;;;;27.07;24.43;;;;;;;27.06;100.00;100182.36;1657661;84;22463;-90
2021/07/19 05:56:17;;;;;;;27.48;24.57;;;;;;;27.16;100.00;100189.77;1660257;85;22297;-88
2021/07/19 05:58:44;;;;;;;29.50;24.87;;;;;;;27.22;100.00;100182.97;1659212;85;21651;-88
2021/07/19 06:01:12;;;;;;;26.12;23.30;;;;;;;27.30;100.00;100180.42;1620509;86;21157;-89
2021/07/19 06:03:39;;;;;;;28.45;24.00;;;;;;;27.38;100.00;100188.07;1649330;84;21079;-85
2021/07/19 06:06:13;;;;;;;26.12;23.73;;;;;;;27.45;100.00;100181.80;1652135;85;21149;-85
2021/07/19 06:08:39;;;;;;;26.07;23.57;;;;;;;27.53;100.00;100178.23;1707393;83;21312;-86
2021/07/19 06:11:08;;;;;;;24.45;21.93;;;;;;;27.62;100.00;100177.86;1695444;82;21600;-86
2021/07/19 06:13:35;;;;;;;22.87;20.70;;;;;;;27.69;100.00;100176.64;1698420;82;21093;-89
2021/07/19 06:16:03;;;;;;;25.75;23.05;;;;;;;27.77;100.00;100170.61;1721611;82;21078;-86
2021/07/19 06:18:31;;;;;;;28.27;23.15;;;;;;;27.85;100.00;100175.57;1676082;84;21119;-88
2021/07/19 06:20:58;;;;;;;28.55;23.32;;;;;;;27.95;100.00;100166.39;1730343;82;21534;-86
2021/07/19 06:23:25;;;;;;;24.67;22.07;;;;;;;28.05;100.00;100168.95;1652897;85;21121;-87
2021/07/19 06:25:52;;;;;;;24.47;22.00;;;;;;;28.13;100.00;100170.72;1669306;85;21039;-89
2021/07/19 06:28:19;;;;;;;29.40;23.67;;;;;;;28.24;100.00;100171.72;1614808;85;21159;-88
2021/07/19 06:30:46;;;;;;;24.85;22.22;;;;;;;28.35;100.00;100163.31;1671021;84;21085;-88
2021/07/19 06:33:13;;;;;;;24.35;21.68;;;;;;;28.43;100.00;100168.25;1703753;83;21050;-89
2021/07/19 06:35:40;;;;;;;24.67;22.13;;;;;;;28.53;100.00;100167.58;1688460;83;21121;-88
2021/07/19 06:38:08;;;;;;;24.70;22.10;;;;;;;28.62;100.00;100169.30;1636340;86;21055;-89
2021/07/19 06:40:36;;;;;;;29.25;22.73;;;;;;;28.70;100.00;100170.78;1635725;85;21153;-90
2021/07/19 06:43:03;;;;;;;25.90;21.87;;;;;;;28.79;100.00;100170.10;1627463;86;21108;-87
2021/07/19 06:45:31;;;;;;;26.45;23.40;;;;;;;28.89;100.00;100172.09;1638585;86;21137;-87
2021/07/19 06:47:58;;;;;;;24.60;22.25;;;;;;;29.00;100.00;100169.55;1692178;83;21049;-87
2021/07/19 06:50:25;;;;;;;30.27;23.85;;;;;;;29.10;100.00;100166.46;1690171;83;20971;-89
2021/07/19 06:52:53;;;;;;;24.07;20.90;;;;;;;29.24;100.00;100166.90;1711203;82;21106;-90
2021/07/19 06:55:21;;;;;;;26.87;21.07;;;;;;;29.35;100.00;100162.48;1712779;82;21160;-90
2021/07/19 06:57:48;;;;;;;26.30;23.55;;;;;;;29.47;100.00;100166.91;1715023;82;21076;-89
2021/07/19 07:00:18;;;;;;;24.87;22.17;;;;;;;29.58;100.00;100168.61;1700048;82;20986;-87
2021/07/19 07:02:45;;;;;;;23.10;20.70;;;;;;;29.70;100.00;100167.11;1703396;82;21082;-88
2021/07/19 07:05:14;;;;;;;23.18;20.72;;;;;;;29.78;100.00;100170.67;1719310;81;21526;-90
2021/07/19 07:07:43;;;;;;;24.12;21.62;;;;;;;29.87;100.00;100166.47;1666741;84;21169;-90
2021/07/19 07:10:11;;;;;;;24.80;19.98;;;;;;;29.95;100.00;100165.23;1688343;82;21076;-89
2021/07/19 07:12:42;;;;;;;24.30;19.60;;;;;;;30.05;100.00;100157.79;1669280;82;21077;-90
2021/07/19 07:15:12;;;;;;;19.82;18.15;;;;;;;30.15;100.00;100156.53;1699286;83;21096;-88
2021/07/19 07:17:41;;;;;;;23.25;20.62;;;;;;;30.26;100.00;100165.98;1672391;85;21130;-88
2021/07/19 07:20:11;;;;;;;25.52;20.23;;;;;;;30.37;100.00;100159.63;1628974;86;21104;-86
2021/07/19 07:22:39;;;;;;;21.55;19.12;;;;;;;30.48;100.00;100156.47;1701000;83;21026;-88
2021/07/19 07:25:07;;;;;;;20.15;17.57;;;;;;;30.60;100.00;100157.12;1729067;82;21167;-86
2021/07/19 07:27:35;;;;;;;24.57;19.48;;;;;;;30.72;100.00;100160.94;1718364;81;21130;-87
2021/07/19 07:30:06;;;;;;;19.05;17.12;;;;;;;30.83;100.00;100152.38;1715291;82;21058;-86
2021/07/19 07:32:35;;;;;;;17.95;16.25;;;;;;;30.94;100.00;100157.27;1705504;81;21091;-88
2021/07/19 07:35:05;;;;;;;19.85;17.82;;;;;;;31.05;100.00;100154.08;1709772;83;21157;-90
2021/07/19 07:37:36;;;;;;;19.20;17.52;;;;;;;31.13;100.00;100159.77;1718249;81;21625;-89
2021/07/19 07:40:08;;;;;;;18.45;16.67;;;;;;;31.23;100.00;100154.15;1739161;82;21671;-88
2021/07/19 07:42:38;;;;;;;20.27;17.87;;;;;;;31.33;100.00;100157.42;1716202;82;20947;-87
2021/07/19 07:45:08;;;;;;;19.23;17.02;;;;;;;31.42;100.00;100151.77;1705392;82;21085;-90
2021/07/19 07:47:37;;;;;;;18.42;16.73;;;;;;;31.51;100.00;100150.17;1714049;83;21637;-88
2021/07/19 07:50:06;;;;;;;20.12;18.02;;;;;;;31.62;100.00;100153.16;1701419;83;21197;-88
2021/07/19 07:52:34;;;;;;;20.23;18.45;;;;;;;31.73;100.00;100149.97;1673024;82;22259;-87
2021/07/19 07:55:02;;;;;;;22.40;18.98;;;;;;;31.86;100.00;100145.94;1688676;82;21077;-86
2021/07/19 07:57:29;;;;;;;22.60;20.48;;;;;;;31.96;99.51;100139.73;1689251;81;21789;-87
2021/07/19 08:00:07;;;;;;;;;;;;;;;;;;;;;
2021/07/19 08:02:28;;;;;;;22.90;20.43;;;;;;;32.16;100.00;100137.55;1701348;81;20998;-88
2021/07/19 08:04:57;;;;;;;21.48;19.57;;;;;;;32.23;99.72;100143.50;1723064;81;21046;-87
2021/07/19 08:07:26;;;;;;;22.70;20.43;;;;;;;32.31;93.00;100138.63;1708733;82;21105;-87
2021/07/19 08:10:05;;;;;;;;;;;;;;;;;;;;;
2021/07/19 08:12:27;;;;;;;21.00;19.00;;;;;;;32.48;93.57;100129.70;1687548;82;21026;-90
2021/07/19 08:15:03;;;;;;;20.15;18.37;;;;;;;32.59;80.73;100124.30;1696810;82;21680;-89
2021/07/19 08:17:30;;;;;;;20.30;18.10;;;;;;;32.67;84.59;100127.77;1698070;82;22059;-89
2021/07/19 08:19:57;;;;;;;18.48;16.75;;;;;;;32.76;76.13;100133.38;1654291;84;21038;-90
2021/07/19 08:22:27;;;;;;;17.37;15.43;;;;;;;32.91;63.31;100129.30;1669991;81;22741;-88
2021/07/19 08:25:01;;;;;;;16.75;15.35;;;;;;;32.91;63.31;100129.30;1723163;81;21014;-89
2021/07/19 08:27:34;;;;;;;18.65;16.10;;;;;;;33.00;68.80;100128.19;1606226;87;21213;-91
2021/07/19 08:30:01;;;;;;;19.73;17.70;;;;;;;33.08;83.70;100126.78;1599394;86;22104;-88
2021/07/19 08:32:29;;;;;;;19.57;17.50;;;;;;;33.26;66.96;100118.58;1641739;82;21503;-89
2021/07/19 08:34:58;;;;;;;19.70;16.48;;;;;;;33.26;66.96;100118.58;1697495;82;21090;-88
2021/07/19 08:37:26;;;;;;;19.27;17.40;;;;;;;33.33;67.10;100119.13;1698419;82;21505;-90
2021/07/19 08:39:54;;;;;;;19.00;17.25;;;;;;;33.45;69.52;100117.42;1727736;81;21122;-89
2021/07/19 08:42:21;;;;;;;18.57;16.73;;;;;;;33.50;65.77;100115.47;1645225;84;21004;-88
2021/07/19 08:44:48;;;;;;;20.27;18.02;;;;;;;33.57;79.38;100115.72;1683291;83;21010;-88
2021/07/19 08:54:47;;;;;;;;;;;;;;;;;;;;;
2021/07/19 08:57:40;;;;;;;18.50;16.57;;;;;;;34.06;55.33;100101.80;1455017;89;21054;-87
2021/07/19 09:00:10;;;;;;;16.70;15.20;;;;;;;34.15;57.49;100102.80;1578434;87;21163;-90
2021/07/19 09:02:37;;;;;;;18.25;16.35;;;;;;;34.20;56.29;100091.13;1670684;83;21092;-88
2021/07/19 09:05:06;;;;;;;18.95;17.02;;;;;;;34.27;55.79;100101.84;1661410;83;21085;-86
2021/07/19 09:07:33;;;;;;;17.05;15.65;;;;;;;34.33;56.32;100103.15;1706796;83;21666;-88
2021/07/19 09:10:01;;;;;;;18.15;16.55;;;;;;;34.34;55.27;100095.28;1656775;83;21006;-88
2021/07/19 09:12:41;;;;;;;17.45;15.80;;;;;;;34.34;52.08;100093.39;1679797;83;21114;-86
2021/07/19 09:15:13;;;;;;;16.60;15.08;;;;;;;34.40;54.95;100096.32;1698340;83;21055;-86
2021/07/19 09:17:41;;;;;;;17.62;15.98;;;;;;;34.42;49.48;100096.02;1655763;85;21031;-87
2021/07/19 09:20:13;;;;;;;16.40;14.87;;;;;;;34.38;49.11;100100.41;1651162;85;21659;-87
2021/07/19 09:22:40;;;;;;;16.42;15.03;;;;;;;34.38;53.14;100093.66;1706973;82;21033;-88
2021/07/19 09:25:14;;;;;;;16.00;14.53;;;;;;;34.41;48.91;100100.63;1709647;82;21576;-86
2021/07/19 09:28:05;;;;;;;16.05;14.65;;;;;;;34.43;49.67;100092.23;1700133;83;21079;-88
2021/07/19 09:30:36;;;;;;;16.42;15.03;;;;;;;34.43;48.08;100097.64;1677672;84;22158;-85
2021/07/19 09:33:06;;;;;;;;;;;;;;;34.47;46.22;100096.52;1718426;82;21149;-87
2021/07/19 09:35:36;;;;;;;16.25;14.83;;;;;;;34.59;49.25;100093.66;1729670;81;20162;-86
2021/07/19 09:38:10;;;;;;;16.35;14.73;;;;;;;34.72;45.46;100096.20;1682601;84;21069;-86
2021/07/19 09:40:41;;;;;;;16.37;14.10;;;;;;;34.86;45.69;100095.47;1675148;83;21105;-84
2021/07/19 09:43:26;;;;;;;16.90;15.28;;;;;;;35.03;44.96;100097.72;1680066;84;21149;-87
2021/07/19 09:46:03;;;;;;;15.90;14.30;;;;;;;35.17;44.17;100101.29;1694949;83;21037;-88
2021/07/19 09:48:30;;;;;;;17.82;16.07;;;;;;;35.26;46.26;100097.92;1694141;83;21489;-85
2021/07/19 09:50:58;;;;;;;16.82;15.20;;;;;;;35.11;43.80;100102.47;1681425;84;21081;-86
2021/07/19 09:53:43;;;;;;;16.60;15.20;;;;;;;34.84;43.12;100101.17;1713808;82;21157;-87
2021/07/19 09:56:20;;;;;;;19.45;16.62;;;;;;;34.69;50.39;100094.63;1681184;84;21069;-86
2021/07/19 09:58:50;;;;;;;18.77;16.97;;;;;;;34.65;47.91;100099.81;1702802;83;21593;-87
2021/07/19 10:01:29;;;;;;;18.70;16.95;;;;;;;34.66;45.50;100097.89;1697628;83;21010;-86
2021/07/19 10:04:14;;;;;;;18.37;16.48;;;;;;;34.59;45.85;100096.92;1667730;83;21647;-87
2021/07/19 10:06:44;;;;;;;17.02;15.45;;;;;;;34.57;44.49;100091.78;1691748;83;21153;-86
2021/07/19 10:09:15;;;;;;;18.07;16.37;;;;;;;34.59;43.81;100096.36;1694236;83;21030;-86
2021/07/19 10:11:52;;;;;;;18.32;16.52;;;;;;;34.66;42.98;100093.84;1692415;83;21551;-85
2021/07/19 10:14:33;;;;;;;18.48;16.67;;;;;;;34.75;43.55;100093.45;1701960;83;21988;-86
2021/07/19 10:17:03;;;;;;;18.80;16.95;;;;;;;34.85;42.60;100091.98;1681480;83;21062;-86
2021/07/19 10:19:30;;;;;;;17.05;15.55;;;;;;;34.95;42.44;100091.05;1719744;82;21970;-86
2021/07/19 10:21:57;;;;;;;17.32;15.78;;;;;;;34.97;41.07;100096.19;1686350;83;21010;-86
2021/07/19 10:24:24;;;;;;;17.00;15.35;;;;;;;35.00;43.13;100094.23;1667959;84;21070;-86
2021/07/19 10:26:52;;;;;;;17.87;15.72;;;;;;;35.10;45.66;100089.22;1630229;85;21053;-86
2021/07/19 10:29:19;;;;;;;18.12;16.48;;;;;;;35.17;41.09;100093.17;1693346;82;21037;-83
2021/07/19 10:31:46;;;;;;;17.15;15.65;;;;;;;35.29;40.91;100088.66;1729449;81;21093;-85
2021/07/19 10:34:14;;;;;;;18.00;16.30;;;;;;;35.39;41.14;100090.39;1681723;81;21531;-87
2021/07/19 10:36:52;;;;;;;18.65;16.65;;;;;;;35.45;39.75;100086.56;1711905;82;21085;-85
2021/07/19 10:39:33;;;;;;;18.17;16.35;;;;;;;35.49;40.58;100086.77;1707668;83;21063;-86
2021/07/19 10:42:10;;;;;;;17.37;15.75;;;;;;;35.57;39.96;100087.98;1687037;83;21096;-87
2021/07/19 10:44:40;;;;;;;19.57;17.45;;;;;;;35.60;40.23;100083.34;1727362;82;21126;-86
2021/07/19 10:47:13;;;;;;;18.73;14.97;;;;;;;35.67;37.80;100079.69;1713155;82;21242;-86
2021/07/19 10:49:43;;;;;;;16.57;14.98;;;;;;;35.74;38.28;100074.69;1736284;81;21009;-87
2021/07/19 10:52:12;;;;;;;16.65;14.98;;;;;;;35.79;38.47;100069.17;1732697;82;21524;-87
2021/07/19 10:54:50;;;;;;;15.93;14.53;;;;;;;35.83;38.99;100076.15;1714841;82;21042;-86
2021/07/19 10:57:17;;;;;;;16.30;14.68;;;;;;;35.81;37.41;100066.98;1709550;81;21144;-85
2021/07/19 11:00:04;;;;;;;14.87;13.58;;;;;;;35.80;38.76;100072.14;1715994;82;20999;-86
2021/07/19 11:02:29;;;;;;;15.20;13.95;;;;;;;35.83;38.61;100071.55;1711125;82;21055;-87
2021/07/19 11:04:56;;;;;;;16.80;15.08;;;;;;;35.92;37.18;100070.89;1717072;82;21016;-85
2021/07/19 11:07:25;;;;;;;15.53;14.25;;;;;;;35.97;40.88;100064.02;1688429;82;21060;-86
2021/07/19 11:09:53;;;;;;;15.85;14.55;;;;;;;35.96;38.10;100062.41;1726340;81;21158;-86
2021/07/19 11:12:22;;;;;;;16.37;14.73;;;;;;;35.90;37.34;100056.81;1738561;82;21014;-85
2021/07/19 11:14:55;;;;;;;15.95;14.55;;;;;;;35.87;38.89;100060.92;1716616;81;21481;-86
2021/07/19 11:17:25;;;;;;;16.23;13.93;;;;;;;35.84;38.69;100052.85;1731479;82;21097;-86
2021/07/19 11:19:56;;;;;;;14.85;13.62;;;;;;;35.90;39.18;100054.09;1709076;82;20998;-86
2021/07/19 11:22:27;;;;;;;15.63;14.28;;;;;;;36.00;37.55;100051.23;1745264;81;21153;-88
2021/07/19 11:25:10;;;;;;;15.13;13.50;;;;;;;36.07;37.62;100041.34;1742914;81;21018;-87
2021/07/19 11:27:46;;;;;;;16.05;14.65;;;;;;;36.16;38.57;100043.59;1729887;82;21010;-86
2021/07/19 11:30:22;;;;;;;13.85;12.75;;;;;;;36.22;35.94;100045.66;1739766;81;21093;-85
2021/07/19 11:32:50;;;;;;;15.08;13.62;;;;;;;36.24;37.48;100039.39;1702307;82;21050;-85
2021/07/19 11:35:24;;;;;;;15.25;13.85;;;;;;;36.33;38.29;100030.80;1722874;81;21809;-86
2021/07/19 11:38:01;;;;;;;15.30;13.90;;;;;;;36.39;37.10;100032.83;1722623;82;21185;-87
2021/07/19 11:40:37;;;;;;;14.73;13.22;;;;;;;36.44;36.87;100031.42;1709761;82;21025;-86
2021/07/19 11:43:11;;;;;;;14.93;13.32;;;;;;;36.44;36.84;100029.49;1731990;82;21037;-87
2021/07/19 11:45:42;;;;;;;14.10;12.93;;;;;;;36.44;36.43;100030.84;1738461;82;21020;-87
2021/07/19 11:48:10;;;;;;;15.00;13.45;;;;;;;36.34;35.84;100032.38;1726945;82;21154;-85
2021/07/19 11:50:38;;;;;;;14.03;12.88;;;;;;;36.23;35.38;100033.72;1733457;82;21030;-88
2021/07/19 11:53:06;;;;;;;14.03;12.90;;;;;;;36.19;34.63;100033.52;1719207;82;21053;-84
2021/07/19 11:55:34;;;;;;;15.25;13.65;;;;;;;36.16;35.83;100033.58;1706667;82;21105;-87
2021/07/19 11:58:05;;;;;;;14.23;12.90;;;;;;;36.12;35.55;100036.63;1706903;82;21078;-86
2021/07/19 12:00:37;;;;;;;14.23;12.82;;;;;;;36.10;36.33;100033.41;1715318;82;21167;-84
2021/07/19 12:03:11;;;;;;;13.58;12.55;;;;;;;36.16;35.72;100036.29;1739889;82;21602;-86
2021/07/19 12:05:56;;;;;;;12.98;11.88;;;;;;;36.19;34.66;100034.06;1733696;82;21564;-87
2021/07/19 12:08:31;;;;;;;13.88;12.55;;;;;;;36.24;34.93;100029.91;1720984;82;21046;-85
2021/07/19 12:11:08;;;;;;;15.93;12.73;;;;;;;36.34;35.85;100025.61;1722590;82;20963;-86
2021/07/19 12:13:40;;;;;;;14.03;12.82;;;;;;;36.30;35.21;100027.33;1738024;82;21097;-87
2021/07/19 12:16:08;;;;;;;12.93;11.80;;;;;;;36.08;35.21;100039.70;1736092;81;21049;-87
2021/07/19 12:18:43;;;;;;;13.65;12.55;;;;;;;35.89;36.48;100033.00;1703567;82;21050;-87
2021/07/19 12:21:22;;;;;;;13.90;12.37;;;;;;;35.82;35.62;100027.97;1700773;82;20973;-86
2021/07/19 12:23:55;;;;;;;14.40;12.98;;;;;;;35.88;36.44;100025.16;1699202;81;21062;-87
2021/07/19 12:26:34;;;;;;;14.95;12.82;;;;;;;35.91;35.59;100026.74;1715225;82;21820;-86
2021/07/19 12:29:09;;;;;;;14.73;13.32;;;;;;;35.96;35.34;100020.42;1697378;82;21502;-87
2021/07/19 12:31:57;;;;;;;13.50;12.35;;;;;;;36.08;36.51;100030.22;1706730;82;21034;-87
2021/07/19 12:34:31;;;;;;;15.65;14.03;;;;;;;36.21;37.02;100024.55;1728208;82;21022;-86
2021/07/19 12:37:06;;;;;;;14.15;12.85;;;;;;;36.27;35.58;100020.63;1708211;82;21006;-87
2021/07/19 12:39:36;;;;;;;14.65;13.13;;;;;;;36.26;34.49;100014.13;1705173;82;21169;-87
2021/07/19 12:42:10;;;;;;;13.93;12.82;;;;;;;36.27;36.80;100015.73;1723555;82;21031;-85
2021/07/19 12:44:39;;;;;;;13.93;12.73;;;;;;;36.24;39.63;100013.65;1683191;82;21010;-85
2021/07/19 12:47:06;;;;;;;12.75;11.70;;;;;;;36.15;39.05;100018.42;1737189;81;21003;-85
2021/07/19 12:49:39;;;;;;;14.33;12.95;;;;;;;36.11;39.71;100014.70;1714147;82;21242;-84
2021/07/19 12:52:17;;;;;;;14.23;12.82;;;;;;;36.06;38.95;100012.64;1744726;82;21182;-86
2021/07/19 12:55:06;;;;;;;14.78;13.28;;;;;;;36.10;39.72;100014.45;1738226;82;20967;-86
2021/07/19 12:57:37;;;;;;;13.80;12.33;;;;;;;36.16;38.64;100009.20;1702559;82;21177;-87
2021/07/19 13:00:12;;;;;;;12.00;11.12;;;;;;;36.19;36.54;100011.84;1732305;82;21197;-86
2021/07/19 13:02:40;;;;;;;14.75;13.50;;;;;;;36.19;37.21;100011.84;1718070;82;21112;-85
2021/07/19 13:05:14;;;;;;;13.72;12.43;;;;;;;36.12;37.95;100014.16;1738036;82;21144;-86
2021/07/19 13:07:42;;;;;;;15.15;13.68;;;;;;;35.85;39.71;100017.91;1734000;82;21695;-86
2021/07/19 13:10:22;;;;;;;15.05;13.58;;;;;;;35.32;39.24;100010.97;1713907;81;21572;-84
2021/07/19 13:12:59;;;;;;;14.20;12.80;;;;;;;34.88;40.39;100011.64;1737984;82;21504;-84
2021/07/19 13:15:31;;;;;;;18.40;13.53;;;;;;;34.68;42.40;100013.27;1728410;82;21097;-84
2021/07/19 13:18:07;;;;;;;16.48;14.05;;;;;;;34.71;42.62;100008.64;1650718;84;21174;-86
2021/07/19 13:20:38;;;;;;;14.70;12.37;;;;;;;34.81;41.10;100008.50;1693836;83;21133;-84
2021/07/19 13:23:15;;;;;;;14.90;13.40;;;;;;;34.98;39.18;100012.58;1670200;84;20986;-86
2021/07/19 13:25:42;;;;;;;14.85;13.60;;;;;;;35.12;40.11;100014.81;1665773;85;21263;-86
2021/07/19 13:28:10;;;;;;;15.40;14.10;;;;;;;35.21;41.27;100017.08;1682121;83;21470;-86
2021/07/19 13:30:37;;;;;;;15.45;14.23;;;;;;;35.28;42.50;100022.68;1661673;83;21053;-86
2021/07/19 13:33:07;;;;;;;13.32;12.18;;;;;;;35.27;42.16;100021.06;1696634;83;21116;-86
2021/07/19 13:35:41;;;;;;;14.90;13.62;;;;;;;35.16;45.40;100014.47;1705140;83;21117;-86
2021/07/19 13:38:09;;;;;;;13.93;12.58;;;;;;;35.08;46.37;100007.58;1653961;83;20975;-86
2021/07/19 13:40:43;;;;;;;13.80;12.55;;;;;;;35.02;45.05;100014.97;1672437;83;21026;-86
2021/07/19 13:43:19;;;;;;;14.28;12.88;;;;;;;34.98;47.79;100009.34;1702628;83;21174;-86
2021/07/19 13:45:49;;;;;;;14.35;12.78;;;;;;;34.99;50.74;100010.14;1701163;83;21049;-87
2021/07/19 13:48:16;;;;;;;14.85;13.45;;;;;;;35.01;49.93;100007.95;1684137;83;21121;-86
2021/07/19 13:50:43;;;;;;;14.98;13.58;;;;;;;35.02;54.20;100013.05;1707854;83;21014;-85